sensor_id;sensor_type;location;lat;lon;timestamp;temperature;humidity
17483;DHT22;8858;52.308;20.994;2023-04-01T00:01:37;11.30;99.90
17483;DHT22;8858;52.308;20.994;2023-04-01T00:04:05;11.30;99.90
17483;DHT22;8858;52.308;20.994;2023-04-01T00:06:33;11.30;99.90
17483;DHT22;8858;52.308;20.994;2023-04-01T00:09:04;11.30;99.90
17483;DHT22;8858;52.308;20.994;2023-04-01T00:11:33;11.30;99.90
17483;DHT22;8858;52.308;20.994;2023-04-01T00:14:05;11.30;99.90
17483;DHT22;8858;52.308;20.994;2023-04-01T00:16:35;11.30;99.90
17483;DHT22;8858;52.308;20.994;2023-04-01T00:19:04;11.30;99.90
17483;DHT22;8858;52.308;20.994;2023-04-01T00:21:33;11.20;99.90
17483;DHT22;8858;52.308;20.994;2023-04-01T00:24:01;11.20;99.90
17483;DHT22;8858;52.308;20.994;2023-04-01T00:26:33;11.20;99.90
17483;DHT22;8858;52.308;20.994;2023-04-01T00:29:02;11.20;99.90
17483;DHT22;8858;52.308;20.994;2023-04-01T00:31:30;11.20;99.90
17483;DHT22;8858;52.308;20.994;2023-04-01T00:34:00;11.20;99.90
17483;DHT22;8858;52.308;20.994;2023-04-01T00:36:28;11.20;99.90
17483;DHT22;8858;52.308;20.994;2023-04-01T00:39:01;10.90;99.90
17483;DHT22;8858;52.308;20.994;2023-04-01T00:41:29;10.80;99.90
17483;DHT22;8858;52.308;20.994;2023-04-01T00:44:15;10.80;99.90
17483;DHT22;8858;52.308;20.994;2023-04-01T00:46:45;10.80;99.90
17483;DHT22;8858;52.308;20.994;2023-04-01T00:49:21;10.90;99.90
17483;DHT22;8858;52.308;20.994;2023-04-01T00:51:53;10.90;99.90
17483;DHT22;8858;52.308;20.994;2023-04-01T00:54:28;10.80;99.90
17483;DHT22;8858;52.308;20.994;2023-04-01T00:57:03;10.80;99.90
17483;DHT22;8858;52.308;20.994;2023-04-01T00:59:34;10.90;99.90
17483;DHT22;8858;52.308;20.994;2023-04-01T01:02:09;10.80;99.90
17483;DHT22;8858;52.308;20.994;2023-04-01T01:04:42;10.70;99.90
17483;DHT22;8858;52.308;20.994;2023-04-01T01:07:19;10.60;99.90
17483;DHT22;8858;52.308;20.994;2023-04-01T01:09:56;10.60;99.90
17483;DHT22;8858;52.308;20.994;2023-04-01T01:12:34;10.60;99.90
17483;DHT22;8858;52.308;20.994;2023-04-01T01:15:11;10.70;99.90
17483;DHT22;8858;52.308;20.994;2023-04-01T01:17:51;10.80;99.90
17483;DHT22;8858;52.308;20.994;2023-04-01T01:20:48;10.80;99.90
17483;DHT22;8858;52.308;20.994;2023-04-01T01:26:52;10.90;99.90
17483;DHT22;8858;52.308;20.994;2023-04-01T01:29:59;10.90;99.90
17483;DHT22;8858;52.308;20.994;2023-04-01T01:32:42;10.90;99.90
17483;DHT22;8858;52.308;20.994;2023-04-01T01:35:21;11.00;99.90
17483;DHT22;8858;52.308;20.994;2023-04-01T01:37:54;11.00;99.90
17483;DHT22;8858;52.308;20.994;2023-04-01T01:40:25;11.00;99.90
17483;DHT22;8858;52.308;20.994;2023-04-01T01:42:56;10.90;99.90
17483;DHT22;8858;52.308;20.994;2023-04-01T01:45:27;11.00;99.90
17483;DHT22;8858;52.308;20.994;2023-04-01T01:48:00;10.90;99.90
17483;DHT22;8858;52.308;20.994;2023-04-01T01:50:35;10.90;99.90
17483;DHT22;8858;52.308;20.994;2023-04-01T01:53:06;11.00;99.90
17483;DHT22;8858;52.308;20.994;2023-04-01T01:55:37;11.00;99.90
17483;DHT22;8858;52.308;20.994;2023-04-01T01:58:11;11.00;99.90
17483;DHT22;8858;52.308;20.994;2023-04-01T02:00:41;11.00;99.90
17483;DHT22;8858;52.308;20.994;2023-04-01T02:03:12;11.00;99.90
17483;DHT22;8858;52.308;20.994;2023-04-01T02:05:42;11.00;99.90
17483;DHT22;8858;52.308;20.994;2023-04-01T02:08:17;11.00;99.90
17483;DHT22;8858;52.308;20.994;2023-04-01T02:10:52;11.00;99.90
17483;DHT22;8858;52.308;20.994;2023-04-01T02:13:31;11.00;99.90
17483;DHT22;8858;52.308;20.994;2023-04-01T02:16:06;11.00;99.90
17483;DHT22;8858;52.308;20.994;2023-04-01T02:18:38;11.00;99.90
17483;DHT22;8858;52.308;20.994;2023-04-01T02:21:09;11.00;99.90
17483;DHT22;8858;52.308;20.994;2023-04-01T02:23:38;11.00;99.90
17483;DHT22;8858;52.308;20.994;2023-04-01T02:26:07;11.00;99.90
17483;DHT22;8858;52.308;20.994;2023-04-01T02:28:42;11.00;99.90
17483;DHT22;8858;52.308;20.994;2023-04-01T02:31:13;11.00;99.90
17483;DHT22;8858;52.308;20.994;2023-04-01T02:33:42;10.90;99.90
17483;DHT22;8858;52.308;20.994;2023-04-01T02:36:14;11.00;99.90
17483;DHT22;8858;52.308;20.994;2023-04-01T02:38:44;11.00;99.90
17483;DHT22;8858;52.308;20.994;2023-04-01T02:41:13;11.00;99.90
17483;DHT22;8858;52.308;20.994;2023-04-01T02:43:42;11.00;99.90
17483;DHT22;8858;52.308;20.994;2023-04-01T02:46:10;11.00;99.90
17483;DHT22;8858;52.308;20.994;2023-04-01T02:48:39;11.00;99.90
17483;DHT22;8858;52.308;20.994;2023-04-01T02:51:09;10.90;99.90
17483;DHT22;8858;52.308;20.994;2023-04-01T02:53:39;10.80;99.90
17483;DHT22;8858;52.308;20.994;2023-04-01T02:56:09;10.90;99.90
17483;DHT22;8858;52.308;20.994;2023-04-01T02:58:37;10.90;99.90
17483;DHT22;8858;52.308;20.994;2023-04-01T03:01:05;10.90;99.90
17483;DHT22;8858;52.308;20.994;2023-04-01T03:03:35;10.90;99.90
17483;DHT22;8858;52.308;20.994;2023-04-01T03:06:08;10.80;99.90
17483;DHT22;8858;52.308;20.994;2023-04-01T03:08:38;10.80;99.90
17483;DHT22;8858;52.308;20.994;2023-04-01T03:11:12;10.70;99.90
17483;DHT22;8858;52.308;20.994;2023-04-01T03:13:41;10.70;99.90
17483;DHT22;8858;52.308;20.994;2023-04-01T03:16:10;10.70;99.90
17483;DHT22;8858;52.308;20.994;2023-04-01T03:18:38;10.70;99.90
17483;DHT22;8858;52.308;20.994;2023-04-01T03:21:14;10.60;99.90
17483;DHT22;8858;52.308;20.994;2023-04-01T03:23:45;10.60;99.90
17483;DHT22;8858;52.308;20.994;2023-04-01T03:26:13;10.60;99.90
17483;DHT22;8858;52.308;20.994;2023-04-01T03:28:42;10.60;99.90
17483;DHT22;8858;52.308;20.994;2023-04-01T03:31:11;10.70;99.90
17483;DHT22;8858;52.308;20.994;2023-04-01T03:33:47;10.70;99.90
17483;DHT22;8858;52.308;20.994;2023-04-01T03:36:16;10.70;99.90
17483;DHT22;8858;52.308;20.994;2023-04-01T03:38:47;10.60;99.90
17483;DHT22;8858;52.308;20.994;2023-04-01T03:41:22;10.70;99.90
17483;DHT22;8858;52.308;20.994;2023-04-01T03:43:53;10.70;99.90
17483;DHT22;8858;52.308;20.994;2023-04-01T03:46:22;10.70;99.90
17483;DHT22;8858;52.308;20.994;2023-04-01T03:48:52;10.70;99.90
17483;DHT22;8858;52.308;20.994;2023-04-01T03:51:20;10.70;99.90
17483;DHT22;8858;52.308;20.994;2023-04-01T03:53:50;10.70;99.90
17483;DHT22;8858;52.308;20.994;2023-04-01T03:56:19;10.70;99.90
17483;DHT22;8858;52.308;20.994;2023-04-01T03:58:50;10.60;99.90
17483;DHT22;8858;52.308;20.994;2023-04-01T04:01:20;10.60;99.90
17483;DHT22;8858;52.308;20.994;2023-04-01T04:03:53;10.60;99.90
17483;DHT22;8858;52.308;20.994;2023-04-01T04:06:23;10.50;99.90
17483;DHT22;8858;52.308;20.994;2023-04-01T04:08:53;10.50;99.90
17483;DHT22;8858;52.308;20.994;2023-04-01T04:11:23;10.50;99.90
17483;DHT22;8858;52.308;20.994;2023-04-01T04:13:53;10.50;99.90
17483;DHT22;8858;52.308;20.994;2023-04-01T04:16:26;10.50;99.90
17483;DHT22;8858;52.308;20.994;2023-04-01T04:19:01;10.30;99.90
17483;DHT22;8858;52.308;20.994;2023-04-01T04:21:30;10.30;99.90
17483;DHT22;8858;52.308;20.994;2023-04-01T04:24:01;10.20;99.90
17483;DHT22;8858;52.308;20.994;2023-04-01T04:26:50;10.20;99.90
17483;DHT22;8858;52.308;20.994;2023-04-01T04:29:19;10.20;99.90
17483;DHT22;8858;52.308;20.994;2023-04-01T04:31:48;10.10;99.90
17483;DHT22;8858;52.308;20.994;2023-04-01T04:34:17;10.20;99.90
17483;DHT22;8858;52.308;20.994;2023-04-01T04:36:47;10.30;99.90
17483;DHT22;8858;52.308;20.994;2023-04-01T04:39:18;10.30;99.90
17483;DHT22;8858;52.308;20.994;2023-04-01T04:41:48;10.20;99.90
17483;DHT22;8858;52.308;20.994;2023-04-01T04:44:20;10.20;99.90
17483;DHT22;8858;52.308;20.994;2023-04-01T04:46:52;10.20;99.90
17483;DHT22;8858;52.308;20.994;2023-04-01T04:49:22;10.20;99.90
17483;DHT22;8858;52.308;20.994;2023-04-01T04:51:50;10.20;99.90
17483;DHT22;8858;52.308;20.994;2023-04-01T04:54:24;10.30;99.90
17483;DHT22;8858;52.308;20.994;2023-04-01T04:56:58;10.30;99.90
17483;DHT22;8858;52.308;20.994;2023-04-01T04:59:30;10.30;99.90
17483;DHT22;8858;52.308;20.994;2023-04-01T05:02:17;10.20;99.90
17483;DHT22;8858;52.308;20.994;2023-04-01T05:04:46;10.10;99.90
17483;DHT22;8858;52.308;20.994;2023-04-01T05:07:15;10.20;99.90
17483;DHT22;8858;52.308;20.994;2023-04-01T05:09:45;10.10;99.90
17483;DHT22;8858;52.308;20.994;2023-04-01T05:12:14;10.10;99.90
17483;DHT22;8858;52.308;20.994;2023-04-01T05:14:59;10.10;99.90
17483;DHT22;8858;52.308;20.994;2023-04-01T05:17:28;10.00;99.90
17483;DHT22;8858;52.308;20.994;2023-04-01T05:19:57;9.90;99.90
17483;DHT22;8858;52.308;20.994;2023-04-01T05:22:29;9.90;99.90
17483;DHT22;8858;52.308;20.994;2023-04-01T05:24:58;9.90;99.90
17483;DHT22;8858;52.308;20.994;2023-04-01T05:27:27;10.00;99.90
17483;DHT22;8858;52.308;20.994;2023-04-01T05:29:57;10.00;99.90
17483;DHT22;8858;52.308;20.994;2023-04-01T05:32:50;10.00;99.90
17483;DHT22;8858;52.308;20.994;2023-04-01T05:35:19;9.70;99.90
17483;DHT22;8858;52.308;20.994;2023-04-01T05:37:48;9.70;99.90
17483;DHT22;8858;52.308;20.994;2023-04-01T05:40:18;9.80;99.90
17483;DHT22;8858;52.308;20.994;2023-04-01T05:42:47;9.70;99.90
17483;DHT22;8858;52.308;20.994;2023-04-01T05:45:16;9.70;99.90
17483;DHT22;8858;52.308;20.994;2023-04-01T05:48:17;9.70;99.90
17483;DHT22;8858;52.308;20.994;2023-04-01T05:50:45;9.70;99.90
17483;DHT22;8858;52.308;20.994;2023-04-01T05:53:16;9.90;99.90
17483;DHT22;8858;52.308;20.994;2023-04-01T05:55:49;9.90;99.90
17483;DHT22;8858;52.308;20.994;2023-04-01T05:58:18;9.90;99.90
17483;DHT22;8858;52.308;20.994;2023-04-01T06:00:47;9.90;99.90
17483;DHT22;8858;52.308;20.994;2023-04-01T06:03:31;10.00;99.90
17483;DHT22;8858;52.308;20.994;2023-04-01T06:05:59;10.00;99.90
17483;DHT22;8858;52.308;20.994;2023-04-01T06:08:30;10.10;99.90
17483;DHT22;8858;52.308;20.994;2023-04-01T06:11:12;10.20;99.90
17483;DHT22;8858;52.308;20.994;2023-04-01T06:14:02;10.20;99.90
17483;DHT22;8858;52.308;20.994;2023-04-01T06:16:48;10.20;99.90
17483;DHT22;8858;52.308;20.994;2023-04-01T06:19:30;10.30;99.90
17483;DHT22;8858;52.308;20.994;2023-04-01T06:22:22;10.30;99.90
17483;DHT22;8858;52.308;20.994;2023-04-01T06:25:23;10.20;99.90
17483;DHT22;8858;52.308;20.994;2023-04-01T06:28:04;10.30;99.90
17483;DHT22;8858;52.308;20.994;2023-04-01T06:30:42;10.20;99.90
17483;DHT22;8858;52.308;20.994;2023-04-01T06:33:48;10.20;99.90
17483;DHT22;8858;52.308;20.994;2023-04-01T06:36:36;10.30;99.90
17483;DHT22;8858;52.308;20.994;2023-04-01T06:39:30;10.50;99.90
17483;DHT22;8858;52.308;20.994;2023-04-01T06:42:19;10.70;99.90
17483;DHT22;8858;52.308;20.994;2023-04-01T06:45:03;10.80;99.90
17483;DHT22;8858;52.308;20.994;2023-04-01T06:48:05;10.60;99.90
17483;DHT22;8858;52.308;20.994;2023-04-01T06:51:09;10.60;99.90
17483;DHT22;8858;52.308;20.994;2023-04-01T06:54:04;10.70;99.90
17483;DHT22;8858;52.308;20.994;2023-04-01T06:56:57;10.80;99.90
17483;DHT22;8858;52.308;20.994;2023-04-01T06:59:30;10.70;99.90
17483;DHT22;8858;52.308;20.994;2023-04-01T07:02:05;10.90;99.90
17483;DHT22;8858;52.308;20.994;2023-04-01T07:04:43;10.80;99.90
17483;DHT22;8858;52.308;20.994;2023-04-01T07:07:19;10.90;99.90
17483;DHT22;8858;52.308;20.994;2023-04-01T07:09:57;11.00;99.90
17483;DHT22;8858;52.308;20.994;2023-04-01T07:12:37;11.20;99.90
17483;DHT22;8858;52.308;20.994;2023-04-01T07:15:42;11.30;99.90
17483;DHT22;8858;52.308;20.994;2023-04-01T07:18:17;11.30;99.90
17483;DHT22;8858;52.308;20.994;2023-04-01T07:20:47;11.40;99.90
17483;DHT22;8858;52.308;20.994;2023-04-01T07:23:22;11.40;99.90
17483;DHT22;8858;52.308;20.994;2023-04-01T07:26:00;11.40;99.90
17483;DHT22;8858;52.308;20.994;2023-04-01T07:28:51;11.40;99.90
17483;DHT22;8858;52.308;20.994;2023-04-01T07:31:59;11.30;99.90
17483;DHT22;8858;52.308;20.994;2023-04-01T07:34:41;11.10;99.90
17483;DHT22;8858;52.308;20.994;2023-04-01T07:37:16;10.80;99.90
17483;DHT22;8858;52.308;20.994;2023-04-01T07:39:53;10.80;99.90
17483;DHT22;8858;52.308;20.994;2023-04-01T07:42:45;10.90;99.90
17483;DHT22;8858;52.308;20.994;2023-04-01T07:45:21;11.10;99.90
17483;DHT22;8858;52.308;20.994;2023-04-01T07:48:11;11.20;99.90
17483;DHT22;8858;52.308;20.994;2023-04-01T07:50:48;11.10;99.90
17483;DHT22;8858;52.308;20.994;2023-04-01T07:53:26;11.20;99.90
17483;DHT22;8858;52.308;20.994;2023-04-01T07:56:02;11.30;99.90
17483;DHT22;8858;52.308;20.994;2023-04-01T07:58:44;11.30;99.90
17483;DHT22;8858;52.308;20.994;2023-04-01T08:01:40;11.50;99.90
17483;DHT22;8858;52.308;20.994;2023-04-01T08:04:34;11.70;99.90
17483;DHT22;8858;52.308;20.994;2023-04-01T08:07:11;11.80;99.90
17483;DHT22;8858;52.308;20.994;2023-04-01T08:10:04;11.70;99.90
17483;DHT22;8858;52.308;20.994;2023-04-01T08:13:05;11.60;99.90
17483;DHT22;8858;52.308;20.994;2023-04-01T08:15:59;11.30;99.90
17483;DHT22;8858;52.308;20.994;2023-04-01T08:18:48;11.30;99.90
17483;DHT22;8858;52.308;20.994;2023-04-01T08:21:21;11.00;99.90
17483;DHT22;8858;52.308;20.994;2023-04-01T08:23:55;10.90;99.90
17483;DHT22;8858;52.308;20.994;2023-04-01T08:26:30;11.00;99.90
17483;DHT22;8858;52.308;20.994;2023-04-01T08:29:04;10.90;99.90
17483;DHT22;8858;52.308;20.994;2023-04-01T08:31:38;10.90;99.90
17483;DHT22;8858;52.308;20.994;2023-04-01T08:34:13;11.00;99.90
17483;DHT22;8858;52.308;20.994;2023-04-01T08:36:44;11.30;99.90
17483;DHT22;8858;52.308;20.994;2023-04-01T08:39:20;11.60;99.90
17483;DHT22;8858;52.308;20.994;2023-04-01T08:42:16;11.70;99.90
17483;DHT22;8858;52.308;20.994;2023-04-01T08:45:09;11.80;99.90
17483;DHT22;8858;52.308;20.994;2023-04-01T08:47:52;12.00;99.90
17483;DHT22;8858;52.308;20.994;2023-04-01T08:50:41;11.80;99.90
17483;DHT22;8858;52.308;20.994;2023-04-01T08:53:27;11.70;99.90
17483;DHT22;8858;52.308;20.994;2023-04-01T08:56:09;11.40;99.90
17483;DHT22;8858;52.308;20.994;2023-04-01T09:02:02;11.10;99.90
17483;DHT22;8858;52.308;20.994;2023-04-01T09:05:09;11.30;99.90
17483;DHT22;8858;52.308;20.994;2023-04-01T09:07:55;11.10;99.90
17483;DHT22;8858;52.308;20.994;2023-04-01T09:10:55;11.00;99.90
17483;DHT22;8858;52.308;20.994;2023-04-01T09:14:21;11.10;99.90
17483;DHT22;8858;52.308;20.994;2023-04-01T09:17:35;11.20;99.90
17483;DHT22;8858;52.308;20.994;2023-04-01T09:20:45;11.10;99.90
17483;DHT22;8858;52.308;20.994;2023-04-01T09:23:29;11.10;99.90
17483;DHT22;8858;52.308;20.994;2023-04-01T09:26:25;11.20;99.90
17483;DHT22;8858;52.308;20.994;2023-04-01T09:29:05;11.30;99.90
17483;DHT22;8858;52.308;20.994;2023-04-01T09:34:54;11.30;99.90
17483;DHT22;8858;52.308;20.994;2023-04-01T09:37:35;11.40;99.90
17483;DHT22;8858;52.308;20.994;2023-04-01T09:40:24;11.50;99.90
17483;DHT22;8858;52.308;20.994;2023-04-01T09:43:14;11.40;99.90
17483;DHT22;8858;52.308;20.994;2023-04-01T09:45:56;11.50;99.90
17483;DHT22;8858;52.308;20.994;2023-04-01T09:48:43;11.20;99.90
17483;DHT22;8858;52.308;20.994;2023-04-01T09:51:26;11.20;99.90
17483;DHT22;8858;52.308;20.994;2023-04-01T09:54:13;11.20;99.90
17483;DHT22;8858;52.308;20.994;2023-04-01T10:06:48;10.90;99.90
17483;DHT22;8858;52.308;20.994;2023-04-01T10:13:23;10.80;99.90
17483;DHT22;8858;52.308;20.994;2023-04-01T10:16:32;10.90;99.90
17483;DHT22;8858;52.308;20.994;2023-04-01T10:23:06;11.00;99.90
17483;DHT22;8858;52.308;20.994;2023-04-01T10:29:43;11.10;99.90
17483;DHT22;8858;52.308;20.994;2023-04-01T10:35:41;11.10;99.90
17483;DHT22;8858;52.308;20.994;2023-04-01T10:45:22;11.70;99.90
17483;DHT22;8858;52.308;20.994;2023-04-01T10:48:12;12.00;99.90
17483;DHT22;8858;52.308;20.994;2023-04-01T11:01:49;12.30;99.90
17483;DHT22;8858;52.308;20.994;2023-04-01T11:05:26;12.20;99.90
17483;DHT22;8858;52.308;20.994;2023-04-01T11:08:47;11.70;99.90
17483;DHT22;8858;52.308;20.994;2023-04-01T11:11:59;11.40;99.90
17483;DHT22;8858;52.308;20.994;2023-04-01T11:15:06;11.30;99.90
17483;DHT22;8858;52.308;20.994;2023-04-01T11:24:10;11.00;99.90
17483;DHT22;8858;52.308;20.994;2023-04-01T11:27:05;11.10;99.90
17483;DHT22;8858;52.308;20.994;2023-04-01T11:30:14;11.20;99.90
17483;DHT22;8858;52.308;20.994;2023-04-01T11:32:52;11.20;99.90
17483;DHT22;8858;52.308;20.994;2023-04-01T11:35:47;11.30;99.90
17483;DHT22;8858;52.308;20.994;2023-04-01T11:38:35;11.40;99.90
17483;DHT22;8858;52.308;20.994;2023-04-01T11:41:35;11.50;99.90
17483;DHT22;8858;52.308;20.994;2023-04-01T11:44:26;11.40;99.90
17483;DHT22;8858;52.308;20.994;2023-04-01T11:47:22;11.40;99.90
17483;DHT22;8858;52.308;20.994;2023-04-01T11:50:10;11.50;99.90
17483;DHT22;8858;52.308;20.994;2023-04-01T11:56:07;11.60;99.90
17483;DHT22;8858;52.308;20.994;2023-04-01T11:58:57;11.50;99.90
17483;DHT22;8858;52.308;20.994;2023-04-01T12:01:41;11.60;99.90
17483;DHT22;8858;52.308;20.994;2023-04-01T12:04:36;11.70;99.90
17483;DHT22;8858;52.308;20.994;2023-04-01T12:07:18;11.90;99.90
17483;DHT22;8858;52.308;20.994;2023-04-01T12:10:01;12.00;99.90
17483;DHT22;8858;52.308;20.994;2023-04-01T12:12:37;12.10;99.90
17483;DHT22;8858;52.308;20.994;2023-04-01T12:15:30;11.90;99.90
17483;DHT22;8858;52.308;20.994;2023-04-01T12:18:11;11.90;99.90
17483;DHT22;8858;52.308;20.994;2023-04-01T12:20:49;11.90;99.90
17483;DHT22;8858;52.308;20.994;2023-04-01T12:23:45;11.90;99.90
17483;DHT22;8858;52.308;20.994;2023-04-01T12:26:46;11.80;99.90
17483;DHT22;8858;52.308;20.994;2023-04-01T12:29:51;11.90;99.90
17483;DHT22;8858;52.308;20.994;2023-04-01T12:32:26;12.10;99.90
17483;DHT22;8858;52.308;20.994;2023-04-01T12:38:13;12.30;99.90
17483;DHT22;8858;52.308;20.994;2023-04-01T12:41:08;12.30;99.90
17483;DHT22;8858;52.308;20.994;2023-04-01T12:44:07;12.00;99.90
17483;DHT22;8858;52.308;20.994;2023-04-01T12:46:50;12.10;99.90
17483;DHT22;8858;52.308;20.994;2023-04-01T12:52:30;12.00;99.90
17483;DHT22;8858;52.308;20.994;2023-04-01T12:55:29;12.00;99.90
17483;DHT22;8858;52.308;20.994;2023-04-01T12:58:42;12.10;99.90
17483;DHT22;8858;52.308;20.994;2023-04-01T13:01:42;12.20;99.90
17483;DHT22;8858;52.308;20.994;2023-04-01T13:04:56;12.20;99.90
17483;DHT22;8858;52.308;20.994;2023-04-01T13:07:39;12.20;99.90
17483;DHT22;8858;52.308;20.994;2023-04-01T13:10:18;12.30;99.90
17483;DHT22;8858;52.308;20.994;2023-04-01T13:13:10;12.10;99.90
17483;DHT22;8858;52.308;20.994;2023-04-01T13:15:45;12.00;99.90
17483;DHT22;8858;52.308;20.994;2023-04-01T13:18:25;11.90;99.90
17483;DHT22;8858;52.308;20.994;2023-04-01T13:21:02;11.90;99.90
17483;DHT22;8858;52.308;20.994;2023-04-01T13:23:46;11.90;99.90
17483;DHT22;8858;52.308;20.994;2023-04-01T13:26:22;11.90;99.90
17483;DHT22;8858;52.308;20.994;2023-04-01T13:28:58;12.00;99.90
17483;DHT22;8858;52.308;20.994;2023-04-01T13:31:36;11.90;99.90
17483;DHT22;8858;52.308;20.994;2023-04-01T13:34:19;11.90;99.90
17483;DHT22;8858;52.308;20.994;2023-04-01T13:36:58;11.90;99.90
17483;DHT22;8858;52.308;20.994;2023-04-01T13:39:46;11.90;99.90
17483;DHT22;8858;52.308;20.994;2023-04-01T13:42:21;12.10;99.90
17483;DHT22;8858;52.308;20.994;2023-04-01T13:44:56;12.20;99.90
17483;DHT22;8858;52.308;20.994;2023-04-01T13:51:03;12.10;99.90
17483;DHT22;8858;52.308;20.994;2023-04-01T13:53:50;12.00;99.90
17483;DHT22;8858;52.308;20.994;2023-04-01T13:56:29;12.00;99.90
17483;DHT22;8858;52.308;20.994;2023-04-01T13:59:39;12.00;99.90
17483;DHT22;8858;52.308;20.994;2023-04-01T14:02:36;11.80;99.90
17483;DHT22;8858;52.308;20.994;2023-04-01T14:05:32;11.60;99.90
17483;DHT22;8858;52.308;20.994;2023-04-01T14:08:20;11.60;99.90
17483;DHT22;8858;52.308;20.994;2023-04-01T14:10:58;11.60;99.90
17483;DHT22;8858;52.308;20.994;2023-04-01T14:13:39;11.60;99.90
17483;DHT22;8858;52.308;20.994;2023-04-01T14:19:20;11.60;99.90
17483;DHT22;8858;52.308;20.994;2023-04-01T14:21:58;11.70;99.90
17483;DHT22;8858;52.308;20.994;2023-04-01T14:24:52;11.60;99.90
17483;DHT22;8858;52.308;20.994;2023-04-01T14:27:44;11.60;99.90
17483;DHT22;8858;52.308;20.994;2023-04-01T14:30:30;11.40;99.90
17483;DHT22;8858;52.308;20.994;2023-04-01T14:33:06;11.40;99.90
17483;DHT22;8858;52.308;20.994;2023-04-01T14:35:44;11.40;99.90
17483;DHT22;8858;52.308;20.994;2023-04-01T14:38:30;11.40;99.90
17483;DHT22;8858;52.308;20.994;2023-04-01T14:41:19;11.40;99.90
17483;DHT22;8858;52.308;20.994;2023-04-01T14:44:22;11.40;99.90
17483;DHT22;8858;52.308;20.994;2023-04-01T14:47:24;11.20;99.90
17483;DHT22;8858;52.308;20.994;2023-04-01T14:50:05;11.20;99.90
17483;DHT22;8858;52.308;20.994;2023-04-01T14:52:37;11.30;99.90
17483;DHT22;8858;52.308;20.994;2023-04-01T14:55:27;11.30;99.90
17483;DHT22;8858;52.308;20.994;2023-04-01T14:58:09;11.30;99.90
17483;DHT22;8858;52.308;20.994;2023-04-01T15:00:47;11.10;99.90
17483;DHT22;8858;52.308;20.994;2023-04-01T15:03:24;11.00;99.90
17483;DHT22;8858;52.308;20.994;2023-04-01T15:06:00;10.90;99.90
17483;DHT22;8858;52.308;20.994;2023-04-01T15:08:47;10.80;99.90
17483;DHT22;8858;52.308;20.994;2023-04-01T15:11:29;10.70;99.90
17483;DHT22;8858;52.308;20.994;2023-04-01T15:14:29;10.70;99.90
17483;DHT22;8858;52.308;20.994;2023-04-01T15:20:39;10.70;99.90
17483;DHT22;8858;52.308;20.994;2023-04-01T15:23:19;10.70;99.90
17483;DHT22;8858;52.308;20.994;2023-04-01T15:26:20;10.70;99.90
17483;DHT22;8858;52.308;20.994;2023-04-01T15:29:02;10.80;99.90
17483;DHT22;8858;52.308;20.994;2023-04-01T15:31:40;10.60;99.90
17483;DHT22;8858;52.308;20.994;2023-04-01T15:34:26;10.70;99.90
17483;DHT22;8858;52.308;20.994;2023-04-01T15:37:01;10.70;99.90
17483;DHT22;8858;52.308;20.994;2023-04-01T15:39:42;10.70;99.90
17483;DHT22;8858;52.308;20.994;2023-04-01T15:42:23;10.70;99.90
17483;DHT22;8858;52.308;20.994;2023-04-01T15:45:25;10.70;99.90
17483;DHT22;8858;52.308;20.994;2023-04-01T15:48:11;10.60;99.90
17483;DHT22;8858;52.308;20.994;2023-04-01T15:51:15;10.60;99.90
17483;DHT22;8858;52.308;20.994;2023-04-01T15:54:04;10.60;99.90
17483;DHT22;8858;52.308;20.994;2023-04-01T15:56:43;10.60;99.90
17483;DHT22;8858;52.308;20.994;2023-04-01T15:59:24;10.60;99.90
17483;DHT22;8858;52.308;20.994;2023-04-01T16:02:07;10.60;99.90
17483;DHT22;8858;52.308;20.994;2023-04-01T16:04:50;10.70;99.90
17483;DHT22;8858;52.308;20.994;2023-04-01T16:10:44;10.70;99.90
17483;DHT22;8858;52.308;20.994;2023-04-01T16:13:30;10.70;99.90
17483;DHT22;8858;52.308;20.994;2023-04-01T16:16:08;10.60;99.90
17483;DHT22;8858;52.308;20.994;2023-04-01T16:18:57;10.50;99.90
17483;DHT22;8858;52.308;20.994;2023-04-01T16:21:37;10.50;99.90
17483;DHT22;8858;52.308;20.994;2023-04-01T16:24:15;10.50;99.90
17483;DHT22;8858;52.308;20.994;2023-04-01T16:26:50;10.50;99.90
17483;DHT22;8858;52.308;20.994;2023-04-01T16:29:27;10.50;99.90
17483;DHT22;8858;52.308;20.994;2023-04-01T16:32:12;10.50;99.90
17483;DHT22;8858;52.308;20.994;2023-04-01T16:34:54;10.50;99.90
17483;DHT22;8858;52.308;20.994;2023-04-01T16:37:33;10.50;99.90
17483;DHT22;8858;52.308;20.994;2023-04-01T16:40:11;10.50;99.90
17483;DHT22;8858;52.308;20.994;2023-04-01T16:42:48;10.50;99.90
17483;DHT22;8858;52.308;20.994;2023-04-01T16:45:30;10.50;99.90
17483;DHT22;8858;52.308;20.994;2023-04-01T16:48:07;10.50;99.90
17483;DHT22;8858;52.308;20.994;2023-04-01T16:50:48;10.50;99.90
17483;DHT22;8858;52.308;20.994;2023-04-01T16:53:29;10.50;99.90
17483;DHT22;8858;52.308;20.994;2023-04-01T16:56:08;10.50;99.90
17483;DHT22;8858;52.308;20.994;2023-04-01T16:58:42;10.50;99.90
17483;DHT22;8858;52.308;20.994;2023-04-01T17:01:21;10.50;99.90
17483;DHT22;8858;52.308;20.994;2023-04-01T17:03:57;10.40;99.90
17483;DHT22;8858;52.308;20.994;2023-04-01T17:06:33;10.40;99.90
17483;DHT22;8858;52.308;20.994;2023-04-01T17:09:29;10.40;99.90
17483;DHT22;8858;52.308;20.994;2023-04-01T17:12:05;10.40;99.90
17483;DHT22;8858;52.308;20.994;2023-04-01T17:14:42;10.40;99.90
17483;DHT22;8858;52.308;20.994;2023-04-01T17:17:34;10.40;99.90
17483;DHT22;8858;52.308;20.994;2023-04-01T17:20:26;10.20;99.90
17483;DHT22;8858;52.308;20.994;2023-04-01T17:23:01;10.30;99.90
17483;DHT22;8858;52.308;20.994;2023-04-01T17:25:41;10.30;99.90
17483;DHT22;8858;52.308;20.994;2023-04-01T17:28:26;10.30;99.90
17483;DHT22;8858;52.308;20.994;2023-04-01T17:31:02;10.20;99.90
17483;DHT22;8858;52.308;20.994;2023-04-01T17:36:40;10.10;99.90
17483;DHT22;8858;52.308;20.994;2023-04-01T17:39:44;10.10;99.90
17483;DHT22;8858;52.308;20.994;2023-04-01T17:42:20;10.00;99.90
17483;DHT22;8858;52.308;20.994;2023-04-01T17:44:58;9.90;99.90
17483;DHT22;8858;52.308;20.994;2023-04-01T17:47:43;9.90;99.90
17483;DHT22;8858;52.308;20.994;2023-04-01T17:50:24;9.80;99.90
17483;DHT22;8858;52.308;20.994;2023-04-01T17:53:09;9.90;99.90
17483;DHT22;8858;52.308;20.994;2023-04-01T17:55:49;9.80;99.90
17483;DHT22;8858;52.308;20.994;2023-04-01T17:58:29;9.80;99.90
17483;DHT22;8858;52.308;20.994;2023-04-01T18:01:25;9.80;99.90
17483;DHT22;8858;52.308;20.994;2023-04-01T18:04:02;9.70;99.90
17483;DHT22;8858;52.308;20.994;2023-04-01T18:06:59;9.70;99.90
17483;DHT22;8858;52.308;20.994;2023-04-01T18:09:40;9.70;99.90
17483;DHT22;8858;52.308;20.994;2023-04-01T18:12:20;9.70;99.90
17483;DHT22;8858;52.308;20.994;2023-04-01T18:15:24;9.70;99.90
17483;DHT22;8858;52.308;20.994;2023-04-01T18:18:10;9.60;99.90
17483;DHT22;8858;52.308;20.994;2023-04-01T18:20:54;9.60;99.90
17483;DHT22;8858;52.308;20.994;2023-04-01T18:23:36;9.60;99.90